sensor_id;sensor_type;location;lat;lon;timestamp;pressure;altitude;pressure_sealevel;temperature;humidity
39177;BME280;24904;52.208;21.192;2023-01-16T00:03:56;99421.80;;;5.90;78.77
39177;BME280;24904;52.208;21.192;2023-01-16T00:09:01;99426.52;;;5.89;78.63
39177;BME280;24904;52.208;21.192;2023-01-16T00:14:07;99420.25;;;5.87;78.74
39177;BME280;24904;52.208;21.192;2023-01-16T00:19:12;99418.05;;;5.85;78.86
39177;BME280;24904;52.208;21.192;2023-01-16T00:24:17;99416.84;;;5.83;78.83
39177;BME280;24904;52.208;21.192;2023-01-16T00:29:22;99421.91;;;5.83;78.84
39177;BME280;24904;52.208;21.192;2023-01-16T00:34:27;99422.36;;;5.82;78.74
39177;BME280;24904;52.208;21.192;2023-01-16T00:39:32;99423.96;;;5.79;78.71
39177;BME280;24904;52.208;21.192;2023-01-16T00:44:38;99434.31;;;5.79;78.80
39177;BME280;24904;52.208;21.192;2023-01-16T00:49:43;99429.11;;;5.76;78.85
39177;BME280;24904;52.208;21.192;2023-01-16T00:54:48;99430.06;;;5.72;78.77
39177;BME280;24904;52.208;21.192;2023-01-16T00:59:53;99435.85;;;5.68;78.69
39177;BME280;24904;52.208;21.192;2023-01-16T01:04:58;99437.26;;;5.63;78.71
39177;BME280;24904;52.208;21.192;2023-01-16T01:10:03;99437.95;;;5.59;78.68
39177;BME280;24904;52.208;21.192;2023-01-16T01:15:10;99436.86;;;5.54;78.91
39177;BME280;24904;52.208;21.192;2023-01-16T01:20:15;99434.22;;;5.54;78.90
39177;BME280;24904;52.208;21.192;2023-01-16T01:25:20;99428.83;;;5.52;79.30
39177;BME280;24904;52.208;21.192;2023-01-16T01:30:26;99423.88;;;5.49;78.97
39177;BME280;24904;52.208;21.192;2023-01-16T01:35:31;99426.64;;;5.48;79.11
39177;BME280;24904;52.208;21.192;2023-01-16T01:40:36;99428.99;;;5.44;79.20
39177;BME280;24904;52.208;21.192;2023-01-16T01:45:44;99426.25;;;5.42;79.22
39177;BME280;24904;52.208;21.192;2023-01-16T01:50:52;99429.27;;;5.41;79.37
39177;BME280;24904;52.208;21.192;2023-01-16T01:56:02;99429.12;;;5.41;79.58
39177;BME280;24904;52.208;21.192;2023-01-16T02:01:11;99425.77;;;5.42;79.16
39177;BME280;24904;52.208;21.192;2023-01-16T02:06:19;99414.61;;;5.39;79.13
39177;BME280;24904;52.208;21.192;2023-01-16T02:11:29;99412.55;;;5.36;79.33
39177;BME280;24904;52.208;21.192;2023-01-16T02:16:36;99406.73;;;5.37;79.10
39177;BME280;24904;52.208;21.192;2023-01-16T02:27:56;99402.81;;;5.25;79.21
39177;BME280;24904;52.208;21.192;2023-01-16T02:33:10;99400.85;;;5.25;79.21
39177;BME280;24904;52.208;21.192;2023-01-16T02:38:24;99404.60;;;5.18;78.87
39177;BME280;24904;52.208;21.192;2023-01-16T02:43:36;99399.41;;;5.13;79.28
39177;BME280;24904;52.208;21.192;2023-01-16T02:48:49;99402.84;;;5.05;79.12
39177;BME280;24904;52.208;21.192;2023-01-16T02:54:02;99401.23;;;5.03;79.12
39177;BME280;24904;52.208;21.192;2023-01-16T02:59:15;99402.55;;;4.97;79.26
39177;BME280;24904;52.208;21.192;2023-01-16T03:04:44;99401.77;;;4.93;79.22
39177;BME280;24904;52.208;21.192;2023-01-16T03:09:58;99400.89;;;4.88;79.19
39177;BME280;24904;52.208;21.192;2023-01-16T03:15:12;99399.88;;;4.87;78.98
39177;BME280;24904;52.208;21.192;2023-01-16T03:20:29;99396.40;;;4.84;78.91
39177;BME280;24904;52.208;21.192;2023-01-16T03:25:43;99393.61;;;4.80;78.82
39177;BME280;24904;52.208;21.192;2023-01-16T03:30:54;99395.00;;;4.76;78.85
39177;BME280;24904;52.208;21.192;2023-01-16T03:36:01;99396.04;;;4.72;78.93
39177;BME280;24904;52.208;21.192;2023-01-16T03:41:10;99398.64;;;4.70;78.98
39177;BME280;24904;52.208;21.192;2023-01-16T03:46:19;99401.10;;;4.68;78.75
39177;BME280;24904;52.208;21.192;2023-01-16T03:51:30;99406.77;;;4.64;78.72
39177;BME280;24904;52.208;21.192;2023-01-16T03:56:40;99403.36;;;4.63;78.60
39177;BME280;24904;52.208;21.192;2023-01-16T04:01:53;99400.36;;;4.59;78.89
39177;BME280;24904;52.208;21.192;2023-01-16T04:07:01;99401.34;;;4.57;78.78
39177;BME280;24904;52.208;21.192;2023-01-16T04:12:09;99399.31;;;4.57;78.95
39177;BME280;24904;52.208;21.192;2023-01-16T04:17:16;99393.70;;;4.56;78.83
39177;BME280;24904;52.208;21.192;2023-01-16T04:22:23;99396.47;;;4.55;78.78
39177;BME280;24904;52.208;21.192;2023-01-16T04:27:29;99402.58;;;4.53;78.79
39177;BME280;24904;52.208;21.192;2023-01-16T04:32:34;99395.67;;;4.49;78.73
39177;BME280;24904;52.208;21.192;2023-01-16T04:37:39;99402.56;;;4.44;78.47
39177;BME280;24904;52.208;21.192;2023-01-16T04:42:44;99404.30;;;4.38;78.18
39177;BME280;24904;52.208;21.192;2023-01-16T04:47:50;99404.16;;;4.31;78.52
39177;BME280;24904;52.208;21.192;2023-01-16T04:53:14;99410.85;;;4.32;78.70
39177;BME280;24904;52.208;21.192;2023-01-16T04:58:19;99417.34;;;4.30;78.31
39177;BME280;24904;52.208;21.192;2023-01-16T05:03:24;99417.20;;;4.27;78.72
39177;BME280;24904;52.208;21.192;2023-01-16T05:08:29;99413.65;;;4.24;78.64
39177;BME280;24904;52.208;21.192;2023-01-16T05:13:35;99408.61;;;4.25;78.41
39177;BME280;24904;52.208;21.192;2023-01-16T05:18:40;99404.33;;;4.24;78.72
39177;BME280;24904;52.208;21.192;2023-01-16T05:23:45;99405.05;;;4.22;78.20
39177;BME280;24904;52.208;21.192;2023-01-16T05:28:50;99400.38;;;4.17;78.36
39177;BME280;24904;52.208;21.192;2023-01-16T05:33:55;99400.70;;;4.18;78.70
39177;BME280;24904;52.208;21.192;2023-01-16T05:39:00;99397.31;;;4.20;78.24
39177;BME280;24904;52.208;21.192;2023-01-16T05:44:06;99397.74;;;4.18;78.09
39177;BME280;24904;52.208;21.192;2023-01-16T05:49:11;99399.64;;;4.16;78.00
39177;BME280;24904;52.208;21.192;2023-01-16T05:54:16;99399.23;;;4.14;78.08
39177;BME280;24904;52.208;21.192;2023-01-16T05:59:21;99390.05;;;4.13;78.35
39177;BME280;24904;52.208;21.192;2023-01-16T06:04:26;99386.85;;;4.09;78.24
39177;BME280;24904;52.208;21.192;2023-01-16T06:09:31;99377.05;;;3.97;77.79
39177;BME280;24904;52.208;21.192;2023-01-16T06:14:37;99375.05;;;3.91;78.38
39177;BME280;24904;52.208;21.192;2023-01-16T06:19:42;99368.98;;;3.86;77.73
39177;BME280;24904;52.208;21.192;2023-01-16T06:24:47;99371.60;;;3.81;78.21
39177;BME280;24904;52.208;21.192;2023-01-16T06:29:52;99369.73;;;3.78;78.11
39177;BME280;24904;52.208;21.192;2023-01-16T06:34:57;99369.55;;;3.77;77.90
39177;BME280;24904;52.208;21.192;2023-01-16T06:40:03;99373.83;;;3.74;78.18
39177;BME280;24904;52.208;21.192;2023-01-16T06:45:09;99382.94;;;3.76;78.16
39177;BME280;24904;52.208;21.192;2023-01-16T06:50:14;99382.83;;;3.74;78.38
39177;BME280;24904;52.208;21.192;2023-01-16T06:55:20;99383.52;;;3.74;78.22
39177;BME280;24904;52.208;21.192;2023-01-16T07:00:25;99384.66;;;3.72;78.37
39177;BME280;24904;52.208;21.192;2023-01-16T07:05:31;99380.31;;;3.76;78.40
39177;BME280;24904;52.208;21.192;2023-01-16T07:10:36;99375.29;;;3.73;78.12
39177;BME280;24904;52.208;21.192;2023-01-16T07:15:46;99380.38;;;3.71;78.39
39177;BME280;24904;52.208;21.192;2023-01-16T07:21:14;99378.17;;;3.74;78.21
39177;BME280;24904;52.208;21.192;2023-01-16T07:26:39;99384.09;;;3.75;78.30
39177;BME280;24904;52.208;21.192;2023-01-16T07:31:45;99382.73;;;3.76;77.98
39177;BME280;24904;52.208;21.192;2023-01-16T07:36:50;99382.66;;;3.77;77.68
39177;BME280;24904;52.208;21.192;2023-01-16T07:41:55;99370.79;;;3.83;77.97
39177;BME280;24904;52.208;21.192;2023-01-16T07:47:07;99369.77;;;3.87;78.25
39177;BME280;24904;52.208;21.192;2023-01-16T07:52:12;99368.91;;;3.94;77.82
39177;BME280;24904;52.208;21.192;2023-01-16T07:57:17;99360.73;;;4.02;78.00
39177;BME280;24904;52.208;21.192;2023-01-16T08:02:22;99358.48;;;4.15;77.81
39177;BME280;24904;52.208;21.192;2023-01-16T08:07:28;99355.64;;;4.24;77.61
39177;BME280;24904;52.208;21.192;2023-01-16T08:12:33;99354.48;;;4.28;77.71
39177;BME280;24904;52.208;21.192;2023-01-16T08:17:40;99354.62;;;4.31;77.58
39177;BME280;24904;52.208;21.192;2023-01-16T08:29:48;99346.95;;;4.48;77.28
39177;BME280;24904;52.208;21.192;2023-01-16T08:34:51;99341.39;;;4.53;77.12
39177;BME280;24904;52.208;21.192;2023-01-16T08:39:55;99341.23;;;4.59;76.83
39177;BME280;24904;52.208;21.192;2023-01-16T08:44:58;99334.94;;;4.66;76.77
39177;BME280;24904;52.208;21.192;2023-01-16T08:50:20;99335.17;;;4.71;76.72
39177;BME280;24904;52.208;21.192;2023-01-16T09:03:45;99322.50;;;4.88;76.41
39177;BME280;24904;52.208;21.192;2023-01-16T09:08:50;99320.43;;;4.94;76.42
39177;BME280;24904;52.208;21.192;2023-01-16T09:13:56;99311.86;;;4.97;75.89
39177;BME280;24904;52.208;21.192;2023-01-16T09:19:04;99311.28;;;5.01;75.81
39177;BME280;24904;52.208;21.192;2023-01-16T09:24:09;99309.45;;;5.03;75.65
39177;BME280;24904;52.208;21.192;2023-01-16T09:29:14;99305.55;;;5.07;75.83
39177;BME280;24904;52.208;21.192;2023-01-16T09:34:19;99305.27;;;5.08;75.68
39177;BME280;24904;52.208;21.192;2023-01-16T09:39:24;99302.84;;;5.08;75.69
39177;BME280;24904;52.208;21.192;2023-01-16T09:44:30;99293.98;;;5.12;75.70
39177;BME280;24904;52.208;21.192;2023-01-16T09:49:43;99288.27;;;5.16;75.84
39177;BME280;24904;52.208;21.192;2023-01-16T09:54:54;99288.25;;;5.24;75.96
39177;BME280;24904;52.208;21.192;2023-01-16T10:00:19;99288.09;;;5.29;75.64
39177;BME280;24904;52.208;21.192;2023-01-16T10:05:30;99285.38;;;5.30;75.23
39177;BME280;24904;52.208;21.192;2023-01-16T10:17:27;99274.81;;;5.37;75.10
39177;BME280;24904;52.208;21.192;2023-01-16T10:22:42;99265.04;;;5.37;74.87
39177;BME280;24904;52.208;21.192;2023-01-16T10:27:59;99254.19;;;5.41;74.82
39177;BME280;24904;52.208;21.192;2023-01-16T10:33:11;99239.80;;;5.41;74.92
39177;BME280;24904;52.208;21.192;2023-01-16T10:38:32;99234.70;;;5.49;75.23
39177;BME280;24904;52.208;21.192;2023-01-16T10:43:46;99224.78;;;5.48;74.98
39177;BME280;24904;52.208;21.192;2023-01-16T10:49:11;99217.15;;;5.46;75.00
39177;BME280;24904;52.208;21.192;2023-01-16T10:54:39;99205.27;;;5.48;75.01
39177;BME280;24904;52.208;21.192;2023-01-16T10:59:46;99194.19;;;5.45;75.13
39177;BME280;24904;52.208;21.192;2023-01-16T11:04:52;99184.56;;;5.47;75.26
39177;BME280;24904;52.208;21.192;2023-01-16T11:09:58;99176.15;;;5.45;75.01
39177;BME280;24904;52.208;21.192;2023-01-16T11:15:12;99171.29;;;5.42;74.94
39177;BME280;24904;52.208;21.192;2023-01-16T11:20:36;99161.33;;;5.41;75.16
39177;BME280;24904;52.208;21.192;2023-01-16T11:25:44;99153.96;;;5.43;75.00
39177;BME280;24904;52.208;21.192;2023-01-16T11:30:52;99141.42;;;5.42;75.19
39177;BME280;24904;52.208;21.192;2023-01-16T11:36:00;99138.71;;;5.42;75.14
39177;BME280;24904;52.208;21.192;2023-01-16T11:41:07;99136.05;;;5.42;75.33
39177;BME280;24904;52.208;21.192;2023-01-16T11:46:31;99129.45;;;5.42;75.28
39177;BME280;24904;52.208;21.192;2023-01-16T11:51:39;99119.48;;;5.41;75.61
39177;BME280;24904;52.208;21.192;2023-01-16T11:56:52;99115.88;;;5.46;75.79
39177;BME280;24904;52.208;21.192;2023-01-16T12:02:09;99101.52;;;5.49;75.32
39177;BME280;24904;52.208;21.192;2023-01-16T12:07:26;99096.38;;;5.48;75.65
39177;BME280;24904;52.208;21.192;2023-01-16T12:12:37;99083.44;;;5.51;75.53
39177;BME280;24904;52.208;21.192;2023-01-16T12:18:16;99074.98;;;5.54;74.90
39177;BME280;24904;52.208;21.192;2023-01-16T12:32:14;99062.53;;;5.63;74.84
39177;BME280;24904;52.208;21.192;2023-01-16T12:37:33;99061.69;;;5.55;74.56
39177;BME280;24904;52.208;21.192;2023-01-16T12:42:45;99056.33;;;5.48;74.69
39177;BME280;24904;52.208;21.192;2023-01-16T12:48:23;99056.14;;;5.45;74.71
39177;BME280;24904;52.208;21.192;2023-01-16T12:59:15;99061.45;;;5.39;74.86
39177;BME280;24904;52.208;21.192;2023-01-16T13:04:24;99053.41;;;5.30;74.94
39177;BME280;24904;52.208;21.192;2023-01-16T13:09:35;99052.45;;;5.27;75.03
39177;BME280;24904;52.208;21.192;2023-01-16T13:14:41;99037.45;;;5.27;75.47
39177;BME280;24904;52.208;21.192;2023-01-16T13:19:46;99025.34;;;5.29;75.65
39177;BME280;24904;52.208;21.192;2023-01-16T13:24:55;99021.59;;;5.28;75.47
39177;BME280;24904;52.208;21.192;2023-01-16T13:30:03;99011.95;;;5.27;75.73
39177;BME280;24904;52.208;21.192;2023-01-16T13:35:12;99006.20;;;5.30;76.28
39177;BME280;24904;52.208;21.192;2023-01-16T13:40:42;98989.72;;;5.29;75.78
39177;BME280;24904;52.208;21.192;2023-01-16T13:46:09;98979.85;;;5.30;76.22
39177;BME280;24904;52.208;21.192;2023-01-16T13:51:15;98976.10;;;5.28;76.28
39177;BME280;24904;52.208;21.192;2023-01-16T13:56:23;98980.61;;;5.26;76.40
39177;BME280;24904;52.208;21.192;2023-01-16T14:01:33;98977.13;;;5.28;76.43
39177;BME280;24904;52.208;21.192;2023-01-16T14:06:45;98969.45;;;5.33;76.87
39177;BME280;24904;52.208;21.192;2023-01-16T14:12:00;98964.34;;;5.34;76.85
39177;BME280;24904;52.208;21.192;2023-01-16T14:17:04;98956.08;;;5.39;76.95
39177;BME280;24904;52.208;21.192;2023-01-16T14:22:18;98947.33;;;5.44;77.26
39177;BME280;24904;52.208;21.192;2023-01-16T14:27:41;98936.82;;;5.50;77.07
39177;BME280;24904;52.208;21.192;2023-01-16T14:38:02;98921.85;;;5.50;76.86
39177;BME280;24904;52.208;21.192;2023-01-16T14:43:14;98923.84;;;5.45;76.69
39177;BME280;24904;52.208;21.192;2023-01-16T14:48:38;98925.98;;;5.40;76.76
39177;BME280;24904;52.208;21.192;2023-01-16T14:54:02;98916.44;;;5.32;76.99
39177;BME280;24904;52.208;21.192;2023-01-16T14:59:30;98916.70;;;5.27;76.89
39177;BME280;24904;52.208;21.192;2023-01-16T15:04:41;98911.02;;;5.25;76.88
39177;BME280;24904;52.208;21.192;2023-01-16T15:09:50;98899.10;;;5.23;76.75
39177;BME280;24904;52.208;21.192;2023-01-16T15:14:56;98893.66;;;5.17;76.88
39177;BME280;24904;52.208;21.192;2023-01-16T15:20:16;98890.67;;;5.12;76.74
39177;BME280;24904;52.208;21.192;2023-01-16T15:31:17;98883.23;;;4.96;76.56
39177;BME280;24904;52.208;21.192;2023-01-16T15:36:24;98877.80;;;4.91;76.68
39177;BME280;24904;52.208;21.192;2023-01-16T15:41:29;98868.81;;;4.84;76.69
39177;BME280;24904;52.208;21.192;2023-01-16T15:47:11;98859.18;;;4.77;76.75
39177;BME280;24904;52.208;21.192;2023-01-16T15:52:18;98849.20;;;4.72;76.61
39177;BME280;24904;52.208;21.192;2023-01-16T15:57:22;98846.37;;;4.69;76.53
39177;BME280;24904;52.208;21.192;2023-01-16T16:02:26;98836.77;;;4.65;76.99
39177;BME280;24904;52.208;21.192;2023-01-16T16:07:31;98834.63;;;4.61;76.95
39177;BME280;24904;52.208;21.192;2023-01-16T16:12:35;98830.61;;;4.55;76.80
39177;BME280;24904;52.208;21.192;2023-01-16T16:17:39;98824.83;;;4.51;77.06
39177;BME280;24904;52.208;21.192;2023-01-16T16:23:04;98821.16;;;4.49;77.33
39177;BME280;24904;52.208;21.192;2023-01-16T16:28:18;98806.20;;;4.45;77.24
39177;BME280;24904;52.208;21.192;2023-01-16T16:33:23;98796.10;;;4.51;77.63
39177;BME280;24904;52.208;21.192;2023-01-16T16:38:29;98784.89;;;4.57;77.85
39177;BME280;24904;52.208;21.192;2023-01-16T16:43:44;98784.53;;;4.61;77.71
39177;BME280;24904;52.208;21.192;2023-01-16T16:48:50;98778.08;;;4.67;77.80
39177;BME280;24904;52.208;21.192;2023-01-16T16:53:55;98765.21;;;4.71;77.76
39177;BME280;24904;52.208;21.192;2023-01-16T16:58:59;98753.02;;;4.74;77.56
39177;BME280;24904;52.208;21.192;2023-01-16T17:04:05;98744.25;;;4.74;77.99
39177;BME280;24904;52.208;21.192;2023-01-16T17:09:11;98740.65;;;4.79;77.86
39177;BME280;24904;52.208;21.192;2023-01-16T17:14:15;98733.45;;;4.82;78.09
39177;BME280;24904;52.208;21.192;2023-01-16T17:19:21;98730.02;;;4.90;77.95
39177;BME280;24904;52.208;21.192;2023-01-16T17:24:28;98723.17;;;4.92;77.90
39177;BME280;24904;52.208;21.192;2023-01-16T17:29:31;98710.89;;;4.92;78.14
39177;BME280;24904;52.208;21.192;2023-01-16T17:34:35;98703.01;;;4.94;77.89
39177;BME280;24904;52.208;21.192;2023-01-16T17:39:38;98694.01;;;4.96;77.93
39177;BME280;24904;52.208;21.192;2023-01-16T17:44:41;98677.33;;;4.92;78.01
39177;BME280;24904;52.208;21.192;2023-01-16T17:50:02;98661.75;;;4.95;77.92
39177;BME280;24904;52.208;21.192;2023-01-16T17:55:32;98652.98;;;4.96;77.91
39177;BME280;24904;52.208;21.192;2023-01-16T18:00:56;98644.43;;;4.97;78.15
39177;BME280;24904;52.208;21.192;2023-01-16T18:06:01;98634.64;;;4.99;77.78
39177;BME280;24904;52.208;21.192;2023-01-16T18:11:05;98627.81;;;5.01;77.85
39177;BME280;24904;52.208;21.192;2023-01-16T18:16:23;98616.55;;;5.03;77.92
39177;BME280;24904;52.208;21.192;2023-01-16T18:21:44;98609.94;;;5.02;77.63
39177;BME280;24904;52.208;21.192;2023-01-16T18:27:05;98607.54;;;5.04;77.80
39177;BME280;24904;52.208;21.192;2023-01-16T18:32:09;98601.33;;;5.03;77.99
39177;BME280;24904;52.208;21.192;2023-01-16T18:37:23;98594.64;;;5.05;77.91
39177;BME280;24904;52.208;21.192;2023-01-16T18:42:26;98586.49;;;5.05;77.95
39177;BME280;24904;52.208;21.192;2023-01-16T18:47:47;98579.60;;;5.10;77.88
39177;BME280;24904;52.208;21.192;2023-01-16T18:53:13;98568.17;;;5.12;77.82
39177;BME280;24904;52.208;21.192;2023-01-16T18:58:36;98557.45;;;5.15;77.94
39177;BME280;24904;52.208;21.192;2023-01-16T19:03:58;98545.48;;;5.16;77.82
39177;BME280;24904;52.208;21.192;2023-01-16T19:09:01;98533.75;;;5.14;77.72
39177;BME280;24904;52.208;21.192;2023-01-16T19:14:07;98525.36;;;5.16;77.83
39177;BME280;24904;52.208;21.192;2023-01-16T19:19:12;98519.29;;;5.13;77.83
39177;BME280;24904;52.208;21.192;2023-01-16T19:24:16;98513.08;;;5.14;77.89
39177;BME280;24904;52.208;21.192;2023-01-16T19:29:20;98500.87;;;5.15;77.80
39177;BME280;24904;52.208;21.192;2023-01-16T19:34:25;98497.22;;;5.18;78.14
39177;BME280;24904;52.208;21.192;2023-01-16T19:39:29;98487.29;;;5.22;78.19
39177;BME280;24904;52.208;21.192;2023-01-16T19:44:32;98470.82;;;5.21;78.00
39177;BME280;24904;52.208;21.192;2023-01-16T19:49:59;98456.83;;;5.23;77.76
39177;BME280;24904;52.208;21.192;2023-01-16T19:55:03;98446.33;;;5.24;78.05
39177;BME280;24904;52.208;21.192;2023-01-16T20:00:10;98430.94;;;5.26;78.05
39177;BME280;24904;52.208;21.192;2023-01-16T20:05:17;98423.31;;;5.26;77.93
39177;BME280;24904;52.208;21.192;2023-01-16T20:10:21;98414.69;;;5.25;77.88
39177;BME280;24904;52.208;21.192;2023-01-16T20:15:26;98404.59;;;5.25;77.96
39177;BME280;24904;52.208;21.192;2023-01-16T20:20:29;98397.05;;;5.25;77.92
39177;BME280;24904;52.208;21.192;2023-01-16T20:25:33;98390.60;;;5.22;77.96
39177;BME280;24904;52.208;21.192;2023-01-16T20:30:39;98375.36;;;5.24;78.30
39177;BME280;24904;52.208;21.192;2023-01-16T20:35:59;98367.50;;;5.22;78.28
39177;BME280;24904;52.208;21.192;2023-01-16T20:41:07;98357.77;;;5.16;78.54
39177;BME280;24904;52.208;21.192;2023-01-16T20:46:11;98343.02;;;5.13;78.74
39177;BME280;24904;52.208;21.192;2023-01-16T20:51:15;98333.31;;;5.09;78.79
39177;BME280;24904;52.208;21.192;2023-01-16T20:56:19;98322.58;;;5.10;79.20
39177;BME280;24904;52.208;21.192;2023-01-16T21:01:23;98308.59;;;5.08;79.17
39177;BME280;24904;52.208;21.192;2023-01-16T21:06:27;98301.60;;;5.08;79.52
39177;BME280;24904;52.208;21.192;2023-01-16T21:11:31;98292.41;;;5.06;79.68
39177;BME280;24904;52.208;21.192;2023-01-16T21:16:52;98275.33;;;5.06;79.49
39177;BME280;24904;52.208;21.192;2023-01-16T21:22:14;98267.32;;;5.01;79.68
39177;BME280;24904;52.208;21.192;2023-01-16T21:27:18;98258.30;;;5.03;79.84
39177;BME280;24904;52.208;21.192;2023-01-16T21:32:28;98256.73;;;5.04;80.04
39177;BME280;24904;52.208;21.192;2023-01-16T21:51:04;98234.90;;;5.07;80.32
39177;BME280;24904;52.208;21.192;2023-01-16T21:56:07;98228.23;;;5.08;80.14
39177;BME280;24904;52.208;21.192;2023-01-16T22:01:11;98219.69;;;5.08;80.02
39177;BME280;24904;52.208;21.192;2023-01-16T22:14:42;98204.60;;;5.12;80.34
39177;BME280;24904;52.208;21.192;2023-01-16T22:20:05;98194.02;;;5.11;80.32
39177;BME280;24904;52.208;21.192;2023-01-16T22:25:33;98185.48;;;5.10;80.55
39177;BME280;24904;52.208;21.192;2023-01-16T22:30:36;98182.77;;;5.09;80.37
39177;BME280;24904;52.208;21.192;2023-01-16T22:35:39;98175.46;;;5.07;80.57
39177;BME280;24904;52.208;21.192;2023-01-16T22:40:43;98172.28;;;5.01;80.59
39177;BME280;24904;52.208;21.192;2023-01-16T22:45:46;98163.20;;;5.00;80.53
39177;BME280;24904;52.208;21.192;2023-01-16T22:51:09;98158.70;;;4.97;80.88
39177;BME280;24904;52.208;21.192;2023-01-16T22:56:13;98157.08;;;4.94;80.50
39177;BME280;24904;52.208;21.192;2023-01-16T23:01:18;98151.56;;;4.93;80.66
39177;BME280;24904;52.208;21.192;2023-01-16T23:06:24;98147.59;;;4.91;80.30
39177;BME280;24904;52.208;21.192;2023-01-16T23:11:29;98135.48;;;4.88;80.42
39177;BME280;24904;52.208;21.192;2023-01-16T23:16:35;98132.01;;;4.83;80.60
39177;BME280;24904;52.208;21.192;2023-01-16T23:21:39;98125.25;;;4.76;80.45
39177;BME280;24904;52.208;21.192;2023-01-16T23:26:43;98118.27;;;4.71;80.74
39177;BME280;24904;52.208;21.192;2023-01-16T23:31:47;98112.38;;;4.69;80.62
39177;BME280;24904;52.208;21.192;2023-01-16T23:36:51;98104.70;;;4.68;80.54
39177;BME280;24904;52.208;21.192;2023-01-16T23:41:55;98107.73;;;4.66;81.00
39177;BME280;24904;52.208;21.192;2023-01-16T23:47:19;98100.73;;;4.63;80.86
39177;BME280;24904;52.208;21.192;2023-01-16T23:52:25;98087.53;;;4.66;81.10
